Terminal Aerodrome Forecast
Issued by NWS St Louis, MO

Home | Current Version | Previous Version | Text Only | Print | Product List | Glossary Off
Versions: 1 2 3 4 5 6 7 8 9 10 11 12

000
FTUS43 KLSX 281120
TAFCOU
TAF
KCOU 281120Z 2812/2912 14006KT P6SM BKN250
     FM281400 17013KT P6SM FEW050 BKN150
     FM290100 18009KT P6SM BKN120
     FM290700 17006KT P6SM VCTS SCT050CB BKN120=

USA.gov is the U.S. government's official web portal to all federal, state and local government web resources and services.